createdAt,value
2022-10-05T00:02:24.462Z,11.62
2022-10-05T00:04:57.427Z,11.58
2022-10-05T00:07:25.194Z,11.57
2022-10-05T00:09:59.603Z,11.55
2022-10-05T00:12:30.162Z,11.54
2022-10-05T00:15:00.725Z,11.56
2022-10-05T00:17:30.725Z,11.50
2022-10-05T00:19:57.742Z,11.48
2022-10-05T00:22:30.402Z,11.45
2022-10-05T00:25:01.145Z,11.41
2022-10-05T00:27:37.707Z,11.41
2022-10-05T00:30:16.130Z,11.45
2022-10-05T00:32:44.153Z,11.49
2022-10-05T00:35:12.778Z,11.43
2022-10-05T00:37:40.211Z,11.51
2022-10-05T00:40:16.371Z,11.50
2022-10-05T00:43:09.603Z,11.38
2022-10-05T00:45:44.070Z,11.41
2022-10-05T00:48:55.684Z,11.39
2022-10-05T00:51:36.083Z,11.33
2022-10-05T00:54:21.522Z,11.36
2022-10-05T00:57:00.743Z,11.38
2022-10-05T00:59:58.302Z,11.33
2022-10-05T01:02:46.822Z,11.41
2022-10-05T01:05:35.344Z,11.41
2022-10-05T01:08:34.346Z,11.38
2022-10-05T01:11:10.186Z,11.29
2022-10-05T01:13:46.262Z,11.26
2022-10-05T01:16:59.143Z,11.26
2022-10-05T01:19:40.363Z,11.25
2022-10-05T01:22:39.722Z,11.19
2022-10-05T01:25:13.002Z,11.24
2022-10-05T01:27:53.667Z,11.28
2022-10-05T01:30:22.302Z,11.28
2022-10-05T01:33:18.362Z,11.30
2022-10-05T01:35:57.472Z,11.28
2022-10-05T01:38:27.582Z,11.30
2022-10-05T01:41:09.702Z,11.27
2022-10-05T01:43:46.209Z,11.26
2022-10-05T01:46:36.182Z,11.23
2022-10-05T01:49:24.882Z,11.23
2022-10-05T01:52:00.902Z,11.21
2022-10-05T01:54:52.362Z,11.18
2022-10-05T01:57:31.792Z,11.19
2022-10-05T02:00:10.902Z,11.19
2022-10-05T02:02:45.123Z,11.16
2022-10-05T02:05:35.462Z,11.19
2022-10-05T02:08:19.062Z,11.20
2022-10-05T02:10:59.931Z,11.21
2022-10-05T02:13:38.643Z,11.18
2022-10-05T02:16:14.681Z,11.16
2022-10-05T02:18:54.369Z,11.16
2022-10-05T02:21:22.242Z,11.13
2022-10-05T02:23:54.647Z,11.15
2022-10-05T02:26:22.762Z,11.15
2022-10-05T02:28:58.283Z,11.12
2022-10-05T02:32:00.748Z,11.02
2022-10-05T02:34:38.222Z,11.04
2022-10-05T02:37:34.644Z,11.04
2022-10-05T02:40:39.741Z,11.02
2022-10-05T02:43:12.808Z,10.96
2022-10-05T02:46:19.582Z,10.96
2022-10-05T02:48:57.783Z,10.95
2022-10-05T02:51:34.081Z,10.92
2022-10-05T02:54:22.021Z,10.89
2022-10-05T02:57:01.484Z,10.79
2022-10-05T02:59:31.462Z,10.76
2022-10-05T03:02:16.854Z,10.76
2022-10-05T03:05:09.190Z,10.68
2022-10-05T03:07:56.774Z,10.71
2022-10-05T03:10:29.470Z,10.69
2022-10-05T03:13:18.210Z,10.69
2022-10-05T03:16:11.616Z,10.64
2022-10-05T03:18:53.623Z,10.63
2022-10-05T03:21:33.783Z,10.61
2022-10-05T03:24:20.143Z,10.52
2022-10-05T03:27:01.947Z,10.50
2022-10-05T03:29:58.063Z,10.51
2022-10-05T03:32:42.563Z,10.50
2022-10-05T03:35:23.211Z,10.47
2022-10-05T03:38:09.332Z,10.42
2022-10-05T03:40:51.123Z,10.39
2022-10-05T03:43:34.622Z,10.40
2022-10-05T03:46:13.640Z,10.37
2022-10-05T03:48:48.384Z,10.35
2022-10-05T03:51:31.544Z,10.33
2022-10-05T03:54:27.382Z,10.32
2022-10-05T03:57:00.931Z,10.33
2022-10-05T03:59:40.602Z,10.35
2022-10-05T04:02:20.215Z,10.34
2022-10-05T04:05:09.862Z,10.37
2022-10-05T04:07:55.062Z,10.38
2022-10-05T04:10:28.042Z,10.39
2022-10-05T04:13:31.563Z,10.39
2022-10-05T04:16:28.425Z,10.31
2022-10-05T04:19:19.462Z,10.28
2022-10-05T04:22:13.075Z,10.22
2022-10-05T04:24:44.856Z,10.15
2022-10-05T04:27:18.162Z,10.15
2022-10-05T04:30:00.687Z,10.12
2022-10-05T04:32:36.577Z,10.07
2022-10-05T04:35:15.856Z,10.07
2022-10-05T04:38:17.911Z,10.05
2022-10-05T04:41:27.729Z,10.01
2022-10-05T04:44:01.321Z,9.99
2022-10-05T04:46:49.057Z,10.01
2022-10-05T04:49:38.669Z,10.03
2022-10-05T04:52:23.612Z,10.06
2022-10-05T04:55:13.678Z,10.11
2022-10-05T04:57:46.730Z,10.11
2022-10-05T05:00:32.367Z,10.14
2022-10-05T05:03:34.915Z,10.18
2022-10-05T05:06:30.578Z,10.19
2022-10-05T05:09:18.528Z,10.11
2022-10-05T05:12:04.239Z,10.10
2022-10-05T05:15:22.870Z,10.06
2022-10-05T05:18:06.870Z,10.11
2022-10-05T05:20:48.750Z,10.10
2022-10-05T05:23:36.030Z,10.14
2022-10-05T05:26:09.654Z,10.19
2022-10-05T05:28:50.369Z,10.23
2022-10-05T05:31:48.455Z,10.24
2022-10-05T05:34:27.908Z,10.26
2022-10-05T05:37:08.569Z,10.29
2022-10-05T05:39:49.390Z,10.28
2022-10-05T05:42:17.909Z,10.34
2022-10-05T05:44:52.680Z,10.37
2022-10-05T05:47:25.420Z,10.46
2022-10-05T05:50:07.298Z,10.65
2022-10-05T05:52:47.328Z,10.92
2022-10-05T05:55:30.538Z,11.24
2022-10-05T05:58:49.308Z,11.37
2022-10-05T06:01:47.892Z,11.48
2022-10-05T06:04:19.890Z,11.56
2022-10-05T06:06:51.508Z,11.61
2022-10-05T06:09:21.492Z,11.70
2022-10-05T06:12:09.569Z,11.78
2022-10-05T06:14:56.728Z,11.84
2022-10-05T06:17:42.669Z,11.96
2022-10-05T06:20:22.379Z,12.05
2022-10-05T06:22:51.628Z,12.12
2022-10-05T06:25:31.690Z,12.21
2022-10-05T06:28:11.296Z,12.34
2022-10-05T06:31:07.123Z,12.41
2022-10-05T06:33:59.896Z,12.47
2022-10-05T06:36:53.051Z,12.57
2022-10-05T06:39:35.719Z,12.67
2022-10-05T06:42:23.516Z,12.67
2022-10-05T06:45:41.882Z,12.85
2022-10-05T06:48:45.760Z,12.96
2022-10-05T06:51:47.630Z,13.03
2022-10-05T06:54:36.598Z,13.11
2022-10-05T06:57:03.808Z,13.21
2022-10-05T06:59:42.789Z,13.32
2022-10-05T07:02:47.459Z,13.40
2022-10-05T07:05:52.609Z,13.53
2022-10-05T07:08:26.765Z,13.66
2022-10-05T07:11:18.989Z,13.74
2022-10-05T07:14:03.252Z,13.81
2022-10-05T07:16:52.339Z,13.92
2022-10-05T07:19:19.350Z,13.99
2022-10-05T07:22:15.377Z,14.12
2022-10-05T07:25:03.629Z,14.15
2022-10-05T07:27:40.936Z,14.26
2022-10-05T07:30:14.448Z,14.28
2022-10-05T07:33:05.490Z,14.41
2022-10-05T07:36:01.510Z,14.53
2022-10-05T07:38:39.128Z,14.61
2022-10-05T07:41:08.417Z,14.66
2022-10-05T07:44:03.328Z,14.72
2022-10-05T07:46:59.408Z,14.87
2022-10-05T07:49:52.427Z,14.89
2022-10-05T07:52:38.251Z,14.73
2022-10-05T07:55:23.498Z,14.98
2022-10-05T07:58:09.679Z,15.10
2022-10-05T08:01:00.011Z,15.13
2022-10-05T08:03:56.640Z,15.29
2022-10-05T08:06:49.709Z,15.32
2022-10-05T08:09:23.379Z,15.43
2022-10-05T08:11:55.869Z,15.52
2022-10-05T08:14:22.798Z,15.65
2022-10-05T08:16:55.679Z,15.72
2022-10-05T08:19:26.079Z,15.85
2022-10-05T08:22:00.650Z,16.04
2022-10-05T08:25:01.428Z,16.11
2022-10-05T08:27:47.111Z,16.30
2022-10-05T08:30:16.777Z,16.39
2022-10-05T08:33:12.189Z,16.50
2022-10-05T08:35:44.060Z,16.57
2022-10-05T08:38:17.428Z,16.69
2022-10-05T08:40:47.230Z,16.80
2022-10-05T08:43:16.716Z,16.89
2022-10-05T08:46:32.608Z,16.98
2022-10-05T08:49:35.353Z,17.17
2022-10-05T08:52:21.148Z,17.33
2022-10-05T08:55:22.676Z,17.46
2022-10-05T08:58:04.458Z,17.59
2022-10-05T09:00:53.372Z,17.73
2022-10-05T09:03:41.548Z,17.94
2022-10-05T09:06:33.759Z,18.06
2022-10-05T09:09:09.888Z,18.24
2022-10-05T09:11:39.189Z,18.40
2022-10-05T09:14:29.553Z,18.52
2022-10-05T09:17:10.718Z,18.58
2022-10-05T09:20:11.242Z,18.88
2022-10-05T09:23:04.956Z,19.19
2022-10-05T09:25:57.449Z,19.24
2022-10-05T09:28:45.992Z,19.46
2022-10-05T09:31:49.156Z,19.67
2022-10-05T09:34:28.288Z,19.87
2022-10-05T09:37:07.690Z,20.05
2022-10-05T09:39:34.617Z,20.10
2022-10-05T09:42:07.535Z,20.26
2022-10-05T09:44:52.809Z,20.34
2022-10-05T09:48:01.137Z,20.51
2022-10-05T09:50:53.119Z,20.68
2022-10-05T09:54:10.897Z,20.89
2022-10-05T09:57:04.388Z,21.04
2022-10-05T09:59:49.709Z,21.15
2022-10-05T10:03:08.452Z,21.38
2022-10-05T10:06:03.506Z,21.45
2022-10-05T10:08:49.237Z,21.54
2022-10-05T10:11:31.332Z,21.61
2022-10-05T10:14:17.630Z,21.74
2022-10-05T10:17:26.900Z,21.92
2022-10-05T10:20:00.048Z,22.10
2022-10-05T10:22:39.598Z,22.32
2022-10-05T10:25:47.039Z,22.53
2022-10-05T10:28:14.035Z,22.61
2022-10-05T10:30:47.132Z,22.75
2022-10-05T10:33:28.890Z,22.88
2022-10-05T10:36:13.349Z,22.99
2022-10-05T10:38:53.434Z,23.14
2022-10-05T10:41:34.273Z,23.27
2022-10-05T10:44:29.949Z,23.23
2022-10-05T10:47:39.668Z,23.48
2022-10-05T10:50:28.506Z,23.59
2022-10-05T10:53:22.950Z,23.85
2022-10-05T10:56:00.688Z,23.96
2022-10-05T10:59:01.940Z,24.13
2022-10-05T11:13:43.051Z,24.03
2022-10-05T11:16:15.875Z,24.12
2022-10-05T11:19:20.613Z,24.26
2022-10-05T11:22:02.750Z,24.17
2022-10-05T11:24:34.919Z,24.51
2022-10-05T11:27:08.501Z,24.63
2022-10-05T11:29:41.608Z,24.76
2022-10-05T11:32:27.999Z,24.86
2022-10-05T11:35:00.829Z,24.86
2022-10-05T11:38:19.609Z,24.68
2022-10-05T11:41:19.089Z,24.64
2022-10-05T11:44:19.929Z,24.56
2022-10-05T11:46:49.886Z,24.46
2022-10-05T11:49:48.810Z,24.28
2022-10-05T11:52:34.690Z,24.18
2022-10-05T11:55:24.789Z,24.15
2022-10-05T11:57:58.713Z,24.00
2022-10-05T12:00:32.687Z,24.12
2022-10-05T12:03:24.978Z,24.01
2022-10-05T12:06:07.168Z,24.07
2022-10-05T12:08:39.870Z,23.97
2022-10-05T12:11:27.777Z,23.98
2022-10-05T12:14:01.488Z,23.91
2022-10-05T12:16:28.459Z,24.11
2022-10-05T12:19:16.670Z,24.02
2022-10-05T12:22:00.199Z,24.05
2022-10-05T12:24:29.821Z,24.04
2022-10-05T12:27:07.711Z,24.05
2022-10-05T12:29:34.543Z,24.06
2022-10-05T12:32:07.935Z,24.12
2022-10-05T12:35:13.487Z,24.16
2022-10-05T12:38:10.459Z,24.27
2022-10-05T12:40:51.849Z,24.19
2022-10-05T12:43:41.848Z,24.12
2022-10-05T12:46:43.299Z,24.22
2022-10-05T12:49:34.979Z,24.23
2022-10-05T12:52:06.117Z,24.14
2022-10-05T12:54:49.661Z,24.20
2022-10-05T12:57:32.190Z,24.20
2022-10-05T13:00:22.733Z,24.16
2022-10-05T13:02:58.001Z,24.10
2022-10-05T13:05:30.650Z,24.06
2022-10-05T13:08:18.171Z,24.01
2022-10-05T13:10:45.131Z,23.73
2022-10-05T13:13:26.369Z,23.65
2022-10-05T13:16:00.849Z,23.78
2022-10-05T13:18:27.809Z,23.74
2022-10-05T13:21:07.088Z,23.68
2022-10-05T13:23:39.968Z,23.67
2022-10-05T13:26:25.091Z,23.54
2022-10-05T13:29:18.308Z,23.61
2022-10-05T13:31:51.186Z,23.77
2022-10-05T13:34:46.903Z,23.87
2022-10-05T13:37:35.671Z,24.08
2022-10-05T13:40:24.330Z,24.31
2022-10-05T13:43:04.249Z,24.62
2022-10-05T13:45:51.244Z,24.94
2022-10-05T13:49:15.599Z,25.29
2022-10-05T13:52:23.689Z,25.78
2022-10-05T13:55:00.071Z,26.00
2022-10-05T13:57:36.369Z,25.98
2022-10-05T14:00:14.712Z,25.61
2022-10-05T14:02:45.119Z,25.38
2022-10-05T14:05:22.157Z,25.09
2022-10-05T14:07:56.848Z,24.88
2022-10-05T14:10:47.890Z,24.52
2022-10-05T14:13:20.768Z,24.23
2022-10-05T14:16:04.886Z,24.04
2022-10-05T14:18:36.443Z,23.89
2022-10-05T14:21:19.258Z,23.65
2022-10-05T14:23:46.289Z,23.43
2022-10-05T14:26:23.540Z,23.08
2022-10-05T14:29:00.836Z,22.99
2022-10-05T14:31:35.748Z,22.85
2022-10-05T14:34:29.231Z,22.69
2022-10-05T14:37:21.039Z,22.49
2022-10-05T14:39:50.616Z,22.28
2022-10-05T14:42:21.329Z,22.07
2022-10-05T14:45:13.530Z,21.82
2022-10-05T14:48:06.310Z,21.75
2022-10-05T14:50:33.488Z,21.59
2022-10-05T14:53:03.208Z,21.44
2022-10-05T14:55:40.229Z,21.37
2022-10-05T14:58:26.030Z,21.38
2022-10-05T15:01:11.395Z,21.30
2022-10-05T15:03:58.809Z,21.10
2022-10-05T15:06:33.329Z,21.12
2022-10-05T15:09:17.303Z,21.09
2022-10-05T15:11:55.229Z,21.07
2022-10-05T15:14:34.231Z,20.84
2022-10-05T15:17:31.229Z,20.70
2022-10-05T15:20:24.682Z,20.52
2022-10-05T15:23:23.957Z,20.65
2022-10-05T15:26:10.829Z,20.57
2022-10-05T15:28:56.748Z,20.47
2022-10-05T15:31:42.468Z,20.62
2022-10-05T15:34:41.988Z,20.50
2022-10-05T15:37:24.590Z,20.51
2022-10-05T15:40:05.178Z,20.47
2022-10-05T15:42:38.466Z,20.47
2022-10-05T15:45:19.778Z,20.44
2022-10-05T15:47:53.077Z,20.45
2022-10-05T15:50:26.552Z,20.40
2022-10-05T15:53:23.328Z,20.32
2022-10-05T15:56:03.670Z,20.27
2022-10-05T15:58:52.790Z,20.20
2022-10-05T16:01:29.544Z,20.13
2022-10-05T16:04:17.729Z,20.07
2022-10-05T16:07:17.309Z,20.00
2022-10-05T16:09:56.946Z,19.90
2022-10-05T16:12:35.259Z,19.87
2022-10-05T16:15:26.780Z,19.81
2022-10-05T16:18:09.448Z,19.70
2022-10-05T16:21:00.151Z,19.65
2022-10-05T16:24:06.470Z,19.55
2022-10-05T16:26:50.289Z,19.45
2022-10-05T16:29:54.369Z,19.33
2022-10-05T16:32:31.189Z,19.23
2022-10-05T16:35:21.090Z,19.15
2022-10-05T16:38:06.348Z,19.06
2022-10-05T16:41:12.926Z,18.96
2022-10-05T16:43:40.131Z,18.89
2022-10-05T16:46:41.325Z,18.80
2022-10-05T16:49:31.761Z,18.72
2022-10-05T16:52:06.811Z,18.63
2022-10-05T16:54:49.148Z,18.59
2022-10-05T16:57:28.209Z,18.55
2022-10-05T17:00:28.811Z,18.44
2022-10-05T17:03:21.818Z,18.37
2022-10-05T17:06:19.390Z,18.30
2022-10-05T17:09:08.009Z,18.23
2022-10-05T17:11:43.989Z,18.16
2022-10-05T17:14:31.038Z,18.10
2022-10-05T17:17:17.429Z,18.07
2022-10-05T17:20:07.237Z,18.04
2022-10-05T17:22:46.712Z,18.01
2022-10-05T17:25:37.376Z,17.97
2022-10-05T17:28:24.667Z,17.93
2022-10-05T17:31:21.885Z,17.90
2022-10-05T17:34:07.231Z,17.88
2022-10-05T17:36:54.389Z,17.82
2022-10-05T17:39:51.690Z,17.79
2022-10-05T17:42:29.219Z,17.75
2022-10-05T17:45:14.090Z,17.67
2022-10-05T17:48:06.427Z,17.62
2022-10-05T17:51:05.458Z,17.60
2022-10-05T17:54:03.325Z,17.58
2022-10-05T17:56:31.756Z,17.54
2022-10-05T17:58:59.880Z,17.51
2022-10-05T18:01:30.830Z,17.47
2022-10-05T18:04:35.236Z,17.43
2022-10-05T18:07:24.111Z,17.37
2022-10-05T18:09:57.831Z,17.36
2022-10-05T18:12:37.889Z,17.31
2022-10-05T18:15:07.886Z,17.28
2022-10-05T18:17:37.159Z,17.22
2022-10-05T18:20:32.314Z,17.17
2022-10-05T18:23:09.869Z,17.14
2022-10-05T18:26:02.470Z,17.08
2022-10-05T18:29:14.230Z,17.06
2022-10-05T18:32:01.789Z,16.97
2022-10-05T18:34:39.888Z,16.97
2022-10-05T18:37:14.938Z,16.88
2022-10-05T18:40:18.988Z,16.85
2022-10-05T18:43:00.529Z,16.80
2022-10-05T18:45:56.548Z,16.81
2022-10-05T18:48:54.366Z,16.83
2022-10-05T18:51:39.968Z,16.74
2022-10-05T18:54:13.888Z,16.60
2022-10-05T18:56:49.368Z,16.61
2022-10-05T18:59:29.569Z,16.58
2022-10-05T19:02:11.197Z,16.56
2022-10-05T19:04:56.931Z,16.42
2022-10-05T19:07:40.920Z,16.47
2022-10-05T19:10:19.729Z,16.45
2022-10-05T19:13:05.258Z,16.47
2022-10-05T19:15:47.751Z,16.48
2022-10-05T19:18:38.908Z,16.51
2022-10-05T19:21:33.279Z,16.50
2022-10-05T19:24:31.453Z,16.49
2022-10-05T19:27:01.189Z,16.51
2022-10-05T19:29:34.530Z,16.49
2022-10-05T19:32:33.948Z,16.50
2022-10-05T19:35:13.438Z,16.51
2022-10-05T19:37:49.450Z,16.48
2022-10-05T19:40:38.868Z,16.49
2022-10-05T19:43:37.252Z,16.49
2022-10-05T19:46:31.945Z,16.50
2022-10-05T19:49:00.459Z,16.50
2022-10-05T19:51:31.224Z,16.49
2022-10-05T19:54:02.393Z,16.48
2022-10-05T19:56:33.730Z,16.42
2022-10-05T19:59:13.520Z,16.37
2022-10-05T20:01:48.028Z,16.32
2022-10-05T20:04:33.279Z,16.25
2022-10-05T20:07:02.529Z,16.18
2022-10-05T20:09:29.928Z,16.17
2022-10-05T20:11:57.109Z,16.15
2022-10-05T20:14:32.278Z,16.11
2022-10-05T20:17:44.478Z,16.03
2022-10-05T20:20:38.428Z,15.96
2022-10-05T20:23:25.143Z,15.91
2022-10-05T20:26:11.450Z,15.84
2022-10-05T20:28:39.141Z,15.79
2022-10-05T20:31:10.392Z,15.77
2022-10-05T20:33:37.496Z,15.75
2022-10-05T20:36:04.656Z,15.72
2022-10-05T20:38:31.962Z,15.69
2022-10-05T20:40:59.239Z,15.69
2022-10-05T20:43:26.206Z,15.70
2022-10-05T20:45:53.958Z,15.62
2022-10-05T20:48:21.017Z,15.63
2022-10-05T20:50:48.001Z,15.60
2022-10-05T20:53:15.199Z,15.57
2022-10-05T20:55:43.281Z,15.57
2022-10-05T20:58:11.279Z,15.55
2022-10-05T21:00:57.158Z,15.55
2022-10-05T21:03:24.229Z,15.53
2022-10-05T21:05:51.168Z,15.54
2022-10-05T21:08:18.244Z,15.51
2022-10-05T21:10:45.130Z,15.48
2022-10-05T21:13:12.090Z,15.49
2022-10-05T21:15:39.058Z,15.46
2022-10-05T21:18:06.091Z,15.43
2022-10-05T21:20:33.280Z,15.37
2022-10-05T21:23:00.289Z,15.36
2022-10-05T21:25:27.269Z,15.29
2022-10-05T21:27:54.371Z,15.25
2022-10-05T21:30:22.120Z,15.16
2022-10-05T21:32:50.295Z,15.13
2022-10-05T21:35:17.322Z,15.10
2022-10-05T21:37:49.023Z,15.04
2022-10-05T21:40:17.031Z,15.01
2022-10-05T21:42:43.968Z,14.96
2022-10-05T21:45:11.149Z,14.88
2022-10-05T21:47:38.160Z,14.84
2022-10-05T21:50:06.412Z,14.80
2022-10-05T21:52:34.128Z,14.74
2022-10-05T21:55:02.509Z,14.70
2022-10-05T21:57:29.548Z,14.65
2022-10-05T21:59:56.659Z,14.63
2022-10-05T22:02:23.549Z,14.62
2022-10-05T22:04:50.488Z,14.64
2022-10-05T22:07:19.789Z,14.63
2022-10-05T22:09:50.508Z,14.63
2022-10-05T22:12:20.064Z,14.60
2022-10-05T22:14:47.838Z,14.57
2022-10-05T22:17:20.927Z,14.58
2022-10-05T22:19:47.870Z,14.57
2022-10-05T22:22:14.817Z,14.57
2022-10-05T22:25:28.422Z,14.56
2022-10-05T22:27:36.348Z,14.55
2022-10-05T22:30:04.424Z,14.53
2022-10-05T22:32:31.647Z,14.52
2022-10-05T22:34:58.665Z,14.51
2022-10-05T22:37:25.932Z,14.52
2022-10-05T22:39:55.291Z,14.53
2022-10-05T22:42:22.266Z,14.51
2022-10-05T22:44:49.389Z,14.54
2022-10-05T22:47:16.286Z,14.47
2022-10-05T22:49:43.228Z,14.44
2022-10-05T22:52:10.241Z,14.40
2022-10-05T22:54:37.516Z,14.37
2022-10-05T22:57:04.587Z,14.38
2022-10-05T22:59:31.727Z,14.31
2022-10-05T23:01:58.954Z,14.28
2022-10-05T23:04:26.209Z,14.26
2022-10-05T23:06:53.206Z,14.22
2022-10-05T23:09:20.266Z,14.19
2022-10-05T23:11:52.143Z,14.19
2022-10-05T23:14:19.845Z,14.14
2022-10-05T23:16:47.842Z,14.06
2022-10-05T23:19:14.886Z,14.06
2022-10-05T23:21:41.946Z,14.02
2022-10-05T23:24:08.985Z,14.06
2022-10-05T23:26:36.026Z,14.01
2022-10-05T23:29:03.245Z,14.04
2022-10-05T23:31:32.165Z,14.03
2022-10-05T23:33:59.628Z,14.07
2022-10-05T23:36:31.590Z,14.06
2022-10-05T23:38:59.225Z,14.05
2022-10-05T23:41:26.366Z,14.06
2022-10-05T23:43:55.435Z,14.08
2022-10-05T23:46:22.843Z,14.06
2022-10-05T23:48:50.545Z,14.04
2022-10-05T23:51:17.728Z,14.00
2022-10-05T23:53:45.196Z,13.99
2022-10-05T23:56:12.494Z,13.96
2022-10-05T23:58:40.209Z,13.95
